Littleton, Illinois
Current Conditions -  °F | °C
As of 12:55 PM on Thursday 23 Oct 2014 (Local Time) from KMQB Reporting Station
Overcast Overcast  
Wind Chill: 58°   Ceiling: 7000
Heat Index: 58°   Visibility: 10mi
Dew Point: 45°   Wind: 12mph
Humidity: 62%   Direction: 180°S
Pressure: 30.14"   Gusts: NA
Location:  40.23°N, 90.62°W
Report Text: KMQB 231755Z AUTO 18010KT 10SM OVC070 14/07 A3014 RMK AO2 T01420071 10142 20034
Loading
Personal Weather Stations






























Interactive Weather Map
Tropical Storm Tracking
New forecast layout! Learn more

10-Day Weather Forecast

Advertisements
Track Severe Weather on mobile